Time;durP1;ratioP1;P1;durP2;ratioP2;P2;SDS_P1;SDS_P2;PMS_P1;PMS_P2;Temp;Humidity;BMP_temperature;BMP_pressure;BME280_temperature;BME280_humidity;BME280_pressure;Samples;Min_cycle;Max_cycle;Signal;HPM_P1;HPM_P2
2022/02/14 00:00:01;;;;;;;;;;;;;;;;;;5080365;28;19919;-69
2022/02/14 00:02:27;;;;;;;;;;;;;;;;;;5066977;28;19943;-69
2022/02/14 00:04:53;;;;;;;;;;;;;;;;;;5067191;28;19991;-69
2022/02/14 00:07:20;;;;;;;;;;;;;;;;;;5071782;28;19908;-69
2022/02/14 00:09:46;;;;;;;;;;;;;;;;;;5073732;28;19908;-69
2022/02/14 00:12:13;;;;;;;;;;;;;;;;;;5072602;28;19987;-69
2022/02/14 00:14:39;;;;;;;;;;;;;;;;;;5072520;28;19915;-69
2022/02/14 00:17:05;;;;;;;;;;;;;;;;;;5089145;28;19969;-69
2022/02/14 00:19:31;;;;;;;;;;;;;;;;;;5075051;28;20348;-69
2022/02/14 00:21:58;;;;;;;;;;;;;;;;;;5067167;28;19979;-69
2022/02/14 00:24:24;;;;;;;;;;;;;;;;;;5085200;28;19908;-69
2022/02/14 00:26:53;;;;;;;;;;;;;;;;;;5087170;28;19904;-69
2022/02/14 00:29:19;;;;;;;;;;;;;;;;;;5091525;28;20323;-69
2022/02/14 00:31:45;;;;;;;;;;;;;;;;;;5092399;28;20354;-69
2022/02/14 00:34:11;;;;;;;;;;;;;;;;;;5092742;28;19904;-69
2022/02/14 00:36:39;;;;;;;;;;;;;;;;;;5091916;28;19916;-69
2022/02/14 00:39:05;;;;;;;;;;;;;;;;;;5092501;28;19912;-69
2022/02/14 00:41:31;;;;;;;;;;;;;;;;;;5072096;28;20296;-69
2022/02/14 00:43:57;;;;;;;;;;;;;;;;;;5066972;28;20281;-69
2022/02/14 00:46:24;;;;;;;;;;;;;;;;;;5083299;28;20697;-69
2022/02/14 00:48:50;;;;;;;;;;;;;;;;;;5066969;28;19908;-69
2022/02/14 00:51:16;;;;;;;;;;;;;;;;;;5070352;28;20350;-69
2022/02/14 00:53:42;;;;;;;;;;;;;;;;;;5072375;28;20332;-69
2022/02/14 00:56:09;;;;;;;;;;;;;;;;;;5085614;28;19985;-69
2022/02/14 00:58:35;;;;;;;;;;;;;;;;;;5092053;28;19908;-69
2022/02/14 01:01:01;;;;;;;;;;;;;;;;;;5091970;28;19911;-69
2022/02/14 01:03:27;;;;;;;;;;;;;;;;;;5072237;28;19951;-69
2022/02/14 01:05:54;;;;;;;;;;;;;;;;;;5082821;28;19979;-69
2022/02/14 01:08:20;;;;;;;;;;;;;;;;;;5067760;28;19910;-69
2022/02/14 01:10:46;;;;;;;;;;;;;;;;;;5083668;28;20389;-69
2022/02/14 01:13:12;;;;;;;;;;;;;;;;;;5089362;28;19908;-69
2022/02/14 01:15:38;;;;;;;;;;;;;;;;;;5091356;28;19908;-69
2022/02/14 01:18:05;;;;;;;;;;;;;;;;;;5079979;28;20492;-69
2022/02/14 01:20:31;;;;;;;;;;;;;;;;;;5072159;28;19952;-69
2022/02/14 01:22:57;;;;;;;;;;;;;;;;;;5072071;28;19904;-69
2022/02/14 01:25:23;;;;;;;;;;;;;;;;;;5069072;28;19930;-69
2022/02/14 01:27:50;;;;;;;;;;;;;;;;;;5078563;28;20049;-69
2022/02/14 01:30:16;;;;;;;;;;;;;;;;;;5077178;28;19952;-68
2022/02/14 01:32:42;;;;;;;;;;;;;;;;;;5069669;28;20284;-69
2022/02/14 01:35:08;;;;;;;;;;;;;;;;;;5074195;28;19909;-69
2022/02/14 01:37:38;;;;;;;;;;;;;;;;;;5077145;28;19966;-69
2022/02/14 01:40:04;;;;;;;;;;;;;;;;;;5090459;28;19912;-69
2022/02/14 01:42:31;;;;;;;;;;;;;;;;;;5076191;28;20322;-68
2022/02/14 01:44:57;;;;;;;;;;;;;;;;;;5079926;28;19907;-69
2022/02/14 01:47:23;;;;;;;;;;;;;;;;;;5092565;28;19912;-69
2022/02/14 01:49:49;;;;;;;;;;;;;;;;;;5077270;28;19912;-69
2022/02/14 01:52:15;;;;;;;;;;;;;;;;;;5069532;28;20343;-69
2022/02/14 01:54:42;;;;;;;;;;;;;;;;;;5069741;28;19931;-69
2022/02/14 01:57:08;;;;;;;;;;;;;;;;;;5071188;28;19971;-68
2022/02/14 01:59:34;;;;;;;;;;;;;;;;;;5086296;28;19908;-68
2022/02/14 02:02:00;;;;;;;;;;;;;;;;;;5093560;28;19966;-68
2022/02/14 02:04:27;;;;;;;;;;;;;;;;;;5074732;28;19912;-69
2022/02/14 02:06:53;;;;;;;;;;;;;;;;;;5074456;28;20344;-68
2022/02/14 02:09:19;;;;;;;;;;;;;;;;;;5072978;28;19908;-68
2022/02/14 02:14:30;;;;;;;;;;;;;;;;;;5069340;28;19914;-69
2022/02/14 02:16:56;;;;;;;;;;;;;;;;;;5069059;28;20003;-68
2022/02/14 02:19:22;;;;;;;;;;;;;;;;;;5072638;28;20363;-68
2022/02/14 02:21:49;;;;;;;;;;;;;;;;;;5080048;28;19915;-68
2022/02/14 02:24:19;;;;;;;;;;;;;;;;;;5074448;28;19916;-68
2022/02/14 02:26:45;;;;;;;;;;;;;;;;;;5074465;28;19908;-68
2022/02/14 02:29:12;;;;;;;;;;;;;;;;;;5076942;28;19968;-68
2022/02/14 02:31:38;;;;;;;;;;;;;;;;;;5092367;28;20334;-69
2022/02/14 02:34:05;;;;;;;;;;;;;;;;;;5088788;28;20444;-68
2022/02/14 02:36:31;;;;;;;;;;;;;;;;;;5077163;28;20351;-69
2022/02/14 02:38:57;;;;;;;;;;;;;;;;;;5067679;28;19916;-69
2022/02/14 02:41:24;;;;;;;;;;;;;;;;;;5071344;28;19909;-69
2022/02/14 02:43:50;;;;;;;;;;;;;;;;;;5094435;28;19986;-68
2022/02/14 02:46:16;;;;;;;;;;;;;;;;;;5092247;28;19908;-68
2022/02/14 02:48:42;;;;;;;;;;;;;;;;;;5094270;28;19904;-68
2022/02/14 02:51:08;;;;;;;;;;;;;;;;;;5085080;28;19994;-68
2022/02/14 02:53:35;;;;;;;;;;;;;;;;;;5074536;28;19909;-68
2022/02/14 02:56:01;;;;;;;;;;;;;;;;;;5084309;28;20679;-68
2022/02/14 02:58:27;;;;;;;;;;;;;;;;;;5069369;28;19918;-68
2022/02/14 03:00:53;;;;;;;;;;;;;;;;;;5076030;28;19955;-68
2022/02/14 03:03:20;;;;;;;;;;;;;;;;;;5083864;28;19985;-68
2022/02/14 03:05:46;;;;;;;;;;;;;;;;;;5085631;28;19910;-68
2022/02/14 03:08:12;;;;;;;;;;;;;;;;;;5093492;28;19950;-68
2022/02/14 03:10:38;;;;;;;;;;;;;;;;;;5074658;28;19912;-68
2022/02/14 03:13:06;;;;;;;;;;;;;;;;;;5073726;28;19920;-68
2022/02/14 03:15:33;;;;;;;;;;;;;;;;;;5073322;28;19905;-68
2022/02/14 03:17:59;;;;;;;;;;;;;;;;;;5068140;28;19955;-68
2022/02/14 03:20:25;;;;;;;;;;;;;;;;;;5069540;28;19908;-68
2022/02/14 03:22:52;;;;;;;;;;;;;;;;;;5086029;28;20275;-68
2022/02/14 03:25:18;;;;;;;;;;;;;;;;;;5087205;28;20355;-68
2022/02/14 03:27:44;;;;;;;;;;;;;;;;;;5072751;28;19908;-68
2022/02/14 03:30:10;;;;;;;;;;;;;;;;;;5073274;28;19911;-68
2022/02/14 03:32:36;;;;;;;;;;;;;;;;;;5073014;28;19962;-68
2022/02/14 03:35:03;;;;;;;;;;;;;;;;;;5073081;28;19905;-68
2022/02/14 03:37:29;;;;;;;;;;;;;;;;;;5086156;28;19916;-67
2022/02/14 03:39:55;;;;;;;;;;;;;;;;;;5087571;28;20051;-68
2022/02/14 03:42:21;;;;;;;;;;;;;;;;;;5071011;28;19909;-68
2022/02/14 03:44:48;;;;;;;;;;;;;;;;;;5067581;28;19909;-67
2022/02/14 03:47:14;;;;;;;;;;;;;;;;;;5067663;28;19908;-68
2022/02/14 03:49:40;;;;;;;;;;;;;;;;;;5071696;28;19908;-68
2022/02/14 03:52:07;;;;;;;;;;;;;;;;;;5083472;28;19915;-68
2022/02/14 03:54:33;;;;;;;;;;;;;;;;;;5080733;28;19987;-67
2022/02/14 03:56:59;;;;;;;;;;;;;;;;;;5092512;28;19959;-68
2022/02/14 03:59:26;;;;;;;;;;;;;;;;;;5092335;28;20262;-68
2022/02/14 04:01:52;;;;;;;;;;;;;;;;;;5088090;28;19915;-67
2022/02/14 04:04:18;;;;;;;;;;;;;;;;;;5087237;28;20399;-68
2022/02/14 04:06:44;;;;;;;;;;;;;;;;;;5084895;28;20661;-68
2022/02/14 04:09:11;;;;;;;;;;;;;;;;;;5086392;28;19915;-68
2022/02/14 04:11:37;;;;;;;;;;;;;;;;;;5082765;28;19915;-67
2022/02/14 04:14:03;;;;;;;;;;;;;;;;;;5072301;28;19958;-68
2022/02/14 04:16:29;;;;;;;;;;;;;;;;;;5083177;28;20007;-68
2022/02/14 04:18:56;;;;;;;;;;;;;;;;;;5092552;28;19912;-67
2022/02/14 04:21:22;;;;;;;;;;;;;;;;;;5092304;28;19971;-67
2022/02/14 04:23:48;;;;;;;;;;;;;;;;;;5077766;28;20403;-67
2022/02/14 04:26:14;;;;;;;;;;;;;;;;;;5084242;28;19908;-67
2022/02/14 04:28:40;;;;;;;;;;;;;;;;;;5087402;28;19998;-67
2022/02/14 04:31:07;;;;;;;;;;;;;;;;;;5086503;28;19969;-67
2022/02/14 04:33:33;;;;;;;;;;;;;;;;;;5089737;28;19965;-68
2022/02/14 04:35:59;;;;;;;;;;;;;;;;;;5073585;28;19919;-67
2022/02/14 04:38:25;;;;;;;;;;;;;;;;;;5088889;28;20350;-67
2022/02/14 04:40:52;;;;;;;;;;;;;;;;;;5086127;28;20369;-67
2022/02/14 04:43:18;;;;;;;;;;;;;;;;;;5079870;28;20002;-67
2022/02/14 04:45:44;;;;;;;;;;;;;;;;;;5087979;28;19951;-67
2022/02/14 04:48:10;;;;;;;;;;;;;;;;;;5086044;28;19976;-67
2022/02/14 04:50:36;;;;;;;;;;;;;;;;;;5086571;28;19916;-67
2022/02/14 04:53:03;;;;;;;;;;;;;;;;;;5086838;28;19912;-67
2022/02/14 04:55:29;;;;;;;;;;;;;;;;;;5089003;28;19907;-67
2022/02/14 04:57:55;;;;;;;;;;;;;;;;;;5072190;28;19924;-66
2022/02/14 05:00:22;;;;;;;;;;;;;;;;;;5074338;28;19904;-67
2022/02/14 05:02:48;;;;;;;;;;;;;;;;;;5095443;28;19908;-67
2022/02/14 05:05:14;;;;;;;;;;;;;;;;;;5095872;28;19904;-67
2022/02/14 05:07:40;;;;;;;;;;;;;;;;;;5079346;28;20616;-67
2022/02/14 05:10:07;;;;;;;;;;;;;;;;;;5070678;28;19904;-67
2022/02/14 05:12:33;;;;;;;;;;;;;;;;;;5073782;28;19908;-67
2022/02/14 05:14:59;;;;;;;;;;;;;;;;;;5070591;28;19911;-67
2022/02/14 05:17:25;;;;;;;;;;;;;;;;;;5073584;28;19923;-67
2022/02/14 05:19:52;;;;;;;;;;;;;;;;;;5096109;28;19904;-67
2022/02/14 05:22:18;;;;;;;;;;;;;;;;;;5085496;28;19909;-67
2022/02/14 05:24:44;;;;;;;;;;;;;;;;;;5075590;28;19904;-67
2022/02/14 05:27:10;;;;;;;;;;;;;;;;;;5079616;28;20445;-67
2022/02/14 05:29:36;;;;;;;;;;;;;;;;;;5073746;28;19908;-66
2022/02/14 05:32:03;;;;;;;;;;;;;;;;;;5070061;28;20346;-67
2022/02/14 05:34:29;;;;;;;;;;;;;;;;;;5070176;28;19987;-66
2022/02/14 05:36:55;;;;;;;;;;;;;;;;;;5080599;28;20013;-67
2022/02/14 05:39:21;;;;;;;;;;;;;;;;;;5090776;28;19969;-66
2022/02/14 05:41:48;;;;;;;;;;;;;;;;;;5082300;28;19919;-66
2022/02/14 05:44:14;;;;;;;;;;;;;;;;;;5075413;28;19908;-66
2022/02/14 05:46:40;;;;;;;;;;;;;;;;;;5075247;28;20267;-66
2022/02/14 05:49:06;;;;;;;;;;;;;;;;;;5075346;28;19904;-66
2022/02/14 05:51:32;;;;;;;;;;;;;;;;;;5078241;28;19947;-66
2022/02/14 05:53:59;;;;;;;;;;;;;;;;;;5089305;28;19915;-66
2022/02/14 05:56:25;;;;;;;;;;;;;;;;;;5089669;28;19918;-66
2022/02/14 05:58:51;;;;;;;;;;;;;;;;;;5083875;28;20003;-66
2022/02/14 06:01:17;;;;;;;;;;;;;;;;;;5069979;28;19955;-67
2022/02/14 06:03:44;;;;;;;;;;;;;;;;;;5074989;28;19905;-66
2022/02/14 06:06:10;;;;;;;;;;;;;;;;;;5074764;28;20263;-67
2022/02/14 06:08:36;;;;;;;;;;;;;;;;;;5074762;28;19912;-66
2022/02/14 06:11:02;;;;;;;;;;;;;;;;;;5079701;28;19908;-66
2022/02/14 06:13:29;;;;;;;;;;;;;;;;;;5078384;28;19908;-65
2022/02/14 06:15:55;;;;;;;;;;;;;;;;;;5069311;28;19915;-69
2022/02/14 06:18:21;;;;;;;;;;;;;;;;;;5069743;28;19908;-66
2022/02/14 06:20:47;;;;;;;;;;;;;;;;;;5071366;28;19908;-64
2022/02/14 06:23:14;;;;;;;;;;;;;;;;;;5069527;28;19954;-65
2022/02/14 06:25:40;;;;;;;;;;;;;;;;;;5092178;28;19915;-65
2022/02/14 06:28:09;;;;;;;;;;;;;;;;;;5079386;28;19916;-65
2022/02/14 06:30:36;;;;;;;;;;;;;;;;;;5082421;28;19912;-64
2022/02/14 06:33:02;;;;;;;;;;;;;;;;;;5074201;28;19930;-64
2022/02/14 06:35:28;;;;;;;;;;;;;;;;;;5082409;28;20390;-65
2022/02/14 06:37:55;;;;;;;;;;;;;;;;;;5079510;28;19939;-64
2022/02/14 06:40:21;;;;;;;;;;;;;;;;;;5070971;28;20430;-63
2022/02/14 06:42:49;;;;;;;;;;;;;;;;;;5088990;28;19911;-67
2022/02/14 06:45:16;;;;;;;;;;;;;;;;;;5089516;28;19911;-67
2022/02/14 06:47:42;;;;;;;;;;;;;;;;;;5093407;28;19908;-67
2022/02/14 06:50:08;;;;;;;;;;;;;;;;;;5094686;28;20313;-69
2022/02/14 06:52:34;;;;;;;;;;;;;;;;;;5094085;28;19904;-70
2022/02/14 06:55:01;;;;;;;;;;;;;;;;;;5092445;28;19977;-67
2022/02/14 06:57:27;;;;;;;;;;;;;;;;;;5084223;28;20341;-68
2022/02/14 06:59:53;;;;;;;;;;;;;;;;;;5081260;28;19908;-66
2022/02/14 07:02:19;;;;;;;;;;;;;;;;;;5080900;28;19909;-67
2022/02/14 07:04:45;;;;;;;;;;;;;;;;;;5069766;28;20012;-68
2022/02/14 07:07:18;;;;;;;;;;;;;;;;;;5080821;28;20049;-68
2022/02/14 07:09:45;;;;;;;;;;;;;;;;;;5073252;28;19927;-68
2022/02/14 07:12:11;;;;;;;;;;;;;;;;;;5073507;28;19938;-68
2022/02/14 07:14:37;;;;;;;;;;;;;;;;;;5073159;28;20014;-68
2022/02/14 07:17:03;;;;;;;;;;;;;;;;;;5073419;28;19963;-68
2022/02/14 07:19:29;;;;;;;;;;;;;;;;;;5073495;28;19915;-68
2022/02/14 07:21:56;;;;;;;;;;;;;;;;;;5078996;28;19904;-68
2022/02/14 07:24:22;;;;;;;;;;;;;;;;;;5087406;28;20616;-68
2022/02/14 07:26:48;;;;;;;;;;;;;;;;;;5088316;28;19904;-68
2022/02/14 07:29:14;;;;;;;;;;;;;;;;;;5088053;28;19987;-68
2022/02/14 07:31:41;;;;;;;;;;;;;;;;;;5087271;28;19915;-68
2022/02/14 07:34:08;;;;;;;;;;;;;;;;;;5073205;28;19931;-68
2022/02/14 07:36:34;;;;;;;;;;;;;;;;;;5085193;28;20271;-68
2022/02/14 07:39:00;;;;;;;;;;;;;;;;;;5093202;28;19911;-68
2022/02/14 07:41:26;;;;;;;;;;;;;;;;;;5091730;28;19919;-68
2022/02/14 07:43:53;;;;;;;;;;;;;;;;;;5068820;28;20326;-68
2022/02/14 07:46:19;;;;;;;;;;;;;;;;;;5067393;28;19915;-68
2022/02/14 07:48:48;;;;;;;;;;;;;;;;;;5067865;28;20398;-68
2022/02/14 07:51:14;;;;;;;;;;;;;;;;;;5067866;28;19904;-68
2022/02/14 07:53:41;;;;;;;;;;;;;;;;;;5072320;28;19905;-68
2022/02/14 07:56:09;;;;;;;;;;;;;;;;;;5072901;28;19912;-68
2022/02/14 07:58:36;;;;;;;;;;;;;;;;;;5072600;28;20002;-68
2022/02/14 08:01:02;;;;;;;;;;;;;;;;;;5072529;28;20263;-68
2022/02/14 08:03:28;;;;;;;;;;;;;;;;;;5073760;28;20389;-67
2022/02/14 08:05:54;;;;;;;;;;;;;;;;;;5068814;28;20629;-68
2022/02/14 08:08:21;;;;;;;;;;;;;;;;;;5067607;28;19908;-68
2022/02/14 08:10:47;;;;;;;;;;;;;;;;;;5077668;28;19950;-68
2022/02/14 08:13:13;;;;;;;;;;;;;;;;;;5071693;28;19904;-68
2022/02/14 08:15:39;;;;;;;;;;;;;;;;;;5088177;28;19916;-67
2022/02/14 08:18:07;;;;;;;;;;;;;;;;;;5092017;28;19912;-68
2022/02/14 08:20:34;;;;;;;;;;;;;;;;;;5092597;28;19995;-68
2022/02/14 08:23:02;;;;;;;;;;;;;;;;;;5092700;28;19915;-67
2022/02/14 08:25:28;;;;;;;;;;;;;;;;;;5092497;28;19912;-68
2022/02/14 08:27:54;;;;;;;;;;;;;;;;;;5088496;28;20020;-68
2022/02/14 08:30:21;;;;;;;;;;;;;;;;;;5087122;28;19919;-67
2022/02/14 08:32:49;;;;;;;;;;;;;;;;;;5087032;28;19950;-68
2022/02/14 08:35:17;;;;;;;;;;;;;;;;;;5081594;28;19916;-68
2022/02/14 08:37:43;;;;;;;;;;;;;;;;;;5077821;28;19923;-67
2022/02/14 08:40:09;;;;;;;;;;;;;;;;;;5097104;28;19919;-68
2022/02/14 08:42:36;;;;;;;;;;;;;;;;;;5094569;28;19908;-68
2022/02/14 08:45:03;;;;;;;;;;;;;;;;;;5095208;28;19967;-67
2022/02/14 08:47:29;;;;;;;;;;;;;;;;;;5076375;28;19960;-67
2022/02/14 08:49:55;;;;;;;;;;;;;;;;;;5072479;28;19905;-67
2022/02/14 08:52:22;;;;;;;;;;;;;;;;;;5070993;28;19908;-67
2022/02/14 08:54:48;;;;;;;;;;;;;;;;;;5070921;28;19959;-67
2022/02/14 08:57:14;;;;;;;;;;;;;;;;;;5076603;28;19923;-67
2022/02/14 08:59:41;;;;;;;;;;;;;;;;;;5093455;28;19912;-67
2022/02/14 09:02:07;;;;;;;;;;;;;;;;;;5096042;28;19904;-68
2022/02/14 09:04:33;;;;;;;;;;;;;;;;;;5091487;28;19909;-68
2022/02/14 09:06:59;;;;;;;;;;;;;;;;;;5083725;28;20002;-68
2022/02/14 09:09:26;;;;;;;;;;;;;;;;;;5095881;28;19955;-67
2022/02/14 09:11:52;;;;;;;;;;;;;;;;;;5084345;28;19915;-67
2022/02/14 09:14:18;;;;;;;;;;;;;;;;;;5070550;28;19908;-67
2022/02/14 09:16:46;;;;;;;;;;;;;;;;;;5070466;28;19920;-67
2022/02/14 09:19:12;;;;;;;;;;;;;;;;;;5070381;28;20259;-67
2022/02/14 09:21:42;;;;;;;;;;;;;;;;;;5072512;28;20358;-67
2022/02/14 09:24:12;;;;;;;;;;;;;;;;;;5076535;28;19912;-67
2022/02/14 09:26:38;;;;;;;;;;;;;;;;;;5075544;28;19963;-67
2022/02/14 09:29:04;;;;;;;;;;;;;;;;;;5075547;28;19916;-67
2022/02/14 09:31:30;;;;;;;;;;;;;;;;;;5075405;28;19913;-67
2022/02/14 09:33:57;;;;;;;;;;;;;;;;;;5072661;28;19916;-67
2022/02/14 09:36:23;;;;;;;;;;;;;;;;;;5071035;28;19924;-67
2022/02/14 09:38:49;;;;;;;;;;;;;;;;;;5087651;28;19908;-67
2022/02/14 09:41:16;;;;;;;;;;;;;;;;;;5083655;28;19924;-67
2022/02/14 09:43:44;;;;;;;;;;;;;;;;;;5092206;28;19911;-67
2022/02/14 09:46:10;;;;;;;;;;;;;;;;;;5095182;28;19969;-67
2022/02/14 09:48:37;;;;;;;;;;;;;;;;;;5094561;28;19915;-66
2022/02/14 09:51:03;;;;;;;;;;;;;;;;;;5095074;28;19904;-67
2022/02/14 09:53:30;;;;;;;;;;;;;;;;;;5075224;28;19915;-67
2022/02/14 09:55:56;;;;;;;;;;;;;;;;;;5072441;28;19987;-67
2022/02/14 09:58:22;;;;;;;;;;;;;;;;;;5070699;28;19943;-67
2022/02/14 10:00:49;;;;;;;;;;;;;;;;;;5070776;28;20382;-67
2022/02/14 10:03:15;;;;;;;;;;;;;;;;;;5081475;28;20248;-67
2022/02/14 10:05:41;;;;;;;;;;;;;;;;;;5082051;28;19908;-67
2022/02/14 10:08:07;;;;;;;;;;;;;;;;;;5094409;28;20006;-67
2022/02/14 10:10:34;;;;;;;;;;;;;;;;;;5082233;28;19973;-67
2022/02/14 10:13:00;;;;;;;;;;;;;;;;;;5091898;28;20381;-67
2022/02/14 10:15:26;;;;;;;;;;;;;;;;;;5094884;28;19911;-67
2022/02/14 10:17:53;;;;;;;;;;;;;;;;;;5092456;28;19916;-66
2022/02/14 10:20:19;;;;;;;;;;;;;;;;;;5089138;28;19915;-66
2022/02/14 10:22:45;;;;;;;;;;;;;;;;;;5088846;28;19912;-67
2022/02/14 10:25:11;;;;;;;;;;;;;;;;;;5089254;28;19912;-67
2022/02/14 10:27:39;;;;;;;;;;;;;;;;;;5090601;28;19908;-66
2022/02/14 10:30:06;;;;;;;;;;;;;;;;;;5094787;28;19990;-66
2022/02/14 10:32:32;;;;;;;;;;;;;;;;;;5094156;28;19912;-66
2022/02/14 10:34:59;;;;;;;;;;;;;;;;;;5094632;28;19904;-67
2022/02/14 10:37:25;;;;;;;;;;;;;;;;;;5081672;28;19916;-66
2022/02/14 10:39:51;;;;;;;;;;;;;;;;;;5072062;28;19999;-67
2022/02/14 10:42:23;;;;;;;;;;;;;;;;;;5071556;28;19966;-67
2022/02/14 10:47:35;;;;;;;;;;;;;;;;;;5068978;28;19916;-66
2022/02/14 10:50:01;;;;;;;;;;;;;;;;;;5070404;28;19918;-66
2022/02/14 10:52:27;;;;;;;;;;;;;;;;;;5085317;28;19986;-66
2022/02/14 10:54:53;;;;;;;;;;;;;;;;;;5093897;28;19908;-66
2022/02/14 10:57:20;;;;;;;;;;;;;;;;;;5092591;28;19915;-66
2022/02/14 10:59:46;;;;;;;;;;;;;;;;;;5072993;28;19904;-66
2022/02/14 11:02:13;;;;;;;;;;;;;;;;;;5071219;28;19904;-67
2022/02/14 11:04:40;;;;;;;;;;;;;;;;;;5071317;28;20305;-66
2022/02/14 11:07:06;;;;;;;;;;;;;;;;;;5088378;28;19908;-66
2022/02/14 11:09:33;;;;;;;;;;;;;;;;;;5088369;28;19960;-66
2022/02/14 11:11:59;;;;;;;;;;;;;;;;;;5081429;28;19994;-66
2022/02/14 11:14:25;;;;;;;;;;;;;;;;;;5085702;28;19908;-66
2022/02/14 11:16:52;;;;;;;;;;;;;;;;;;5093364;28;19939;-67
2022/02/14 11:19:18;;;;;;;;;;;;;;;;;;5093098;28;19908;-67
2022/02/14 11:21:44;;;;;;;;;;;;;;;;;;5093647;28;19904;-66
2022/02/14 11:24:10;;;;;;;;;;;;;;;;;;5091225;28;19918;-66
2022/02/14 11:26:38;;;;;;;;;;;;;;;;;;5088279;28;19926;-66
2022/02/14 11:29:04;;;;;;;;;;;;;;;;;;5087862;28;19908;-66
2022/02/14 11:31:31;;;;;;;;;;;;;;;;;;5088475;28;19907;-66
2022/02/14 11:33:57;;;;;;;;;;;;;;;;;;5089386;28;19908;-66
2022/02/14 11:36:23;;;;;;;;;;;;;;;;;;5092726;28;19916;-66
2022/02/14 11:38:50;;;;;;;;;;;;;;;;;;5082959;28;19915;-66
2022/02/14 11:41:17;;;;;;;;;;;;;;;;;;5075239;28;19941;-66
2022/02/14 11:43:43;;;;;;;;;;;;;;;;;;5080465;28;19908;-66
2022/02/14 11:46:15;;;;;;;;;;;;;;;;;;5086763;28;20410;-66
2022/02/14 11:48:41;;;;;;;;;;;;;;;;;;5087621;28;19968;-66
2022/02/14 11:51:08;;;;;;;;;;;;;;;;;;5087445;28;19969;-66
2022/02/14 11:53:34;;;;;;;;;;;;;;;;;;5087694;28;20596;-66
2022/02/14 11:56:00;;;;;;;;;;;;;;;;;;5089144;28;19911;-66
2022/02/14 11:58:26;;;;;;;;;;;;;;;;;;5092807;28;19939;-66
2022/02/14 12:00:52;;;;;;;;;;;;;;;;;;5093342;28;20262;-66
2022/02/14 12:03:19;;;;;;;;;;;;;;;;;;5092750;28;20408;-66
2022/02/14 12:05:45;;;;;;;;;;;;;;;;;;5092229;28;20278;-66
2022/02/14 12:08:11;;;;;;;;;;;;;;;;;;5090675;28;20354;-66
2022/02/14 12:10:37;;;;;;;;;;;;;;;;;;5087470;28;19904;-66
2022/02/14 12:13:06;;;;;;;;;;;;;;;;;;5070022;28;19955;-66
2022/02/14 12:20:43;;;;;;;;;;;;;;;;;;5087713;28;20404;-66
2022/02/14 12:23:10;;;;;;;;;;;;;;;;;;5072636;28;19908;-66
2022/02/14 12:25:36;;;;;;;;;;;;;;;;;;5084317;28;19999;-66
2022/02/14 12:28:02;;;;;;;;;;;;;;;;;;5092468;28;20274;-66
2022/02/14 12:30:28;;;;;;;;;;;;;;;;;;5090479;28;19904;-66
2022/02/14 12:32:54;;;;;;;;;;;;;;;;;;5086878;28;19994;-66
2022/02/14 12:35:21;;;;;;;;;;;;;;;;;;5087188;28;19911;-66
2022/02/14 12:37:47;;;;;;;;;;;;;;;;;;5075507;28;19916;-66
2022/02/14 12:40:13;;;;;;;;;;;;;;;;;;5068460;28;19920;-67
2022/02/14 12:42:39;;;;;;;;;;;;;;;;;;5075940;28;19935;-66
2022/02/14 12:45:06;;;;;;;;;;;;;;;;;;5092527;28;19912;-66
2022/02/14 12:47:32;;;;;;;;;;;;;;;;;;5082884;28;19915;-67
2022/02/14 12:49:58;;;;;;;;;;;;;;;;;;5092069;28;20255;-67
2022/02/14 12:52:25;;;;;;;;;;;;;;;;;;5088497;28;19912;-67
2022/02/14 12:54:51;;;;;;;;;;;;;;;;;;5087286;28;19912;-66
2022/02/14 12:57:17;;;;;;;;;;;;;;;;;;5085579;28;19916;-67
2022/02/14 12:59:43;;;;;;;;;;;;;;;;;;5066967;28;20609;-66
2022/02/14 13:02:10;;;;;;;;;;;;;;;;;;5068182;28;19935;-65
2022/02/14 13:04:36;;;;;;;;;;;;;;;;;;5090832;28;19908;-65
2022/02/14 13:07:02;;;;;;;;;;;;;;;;;;5088147;28;19969;-65
2022/02/14 13:09:29;;;;;;;;;;;;;;;;;;5079684;28;19962;-65
2022/02/14 13:11:55;;;;;;;;;;;;;;;;;;5091945;28;20274;-65
2022/02/14 13:14:22;;;;;;;;;;;;;;;;;;5090472;28;19915;-65
2022/02/14 13:16:48;;;;;;;;;;;;;;;;;;5086576;28;19916;-66
2022/02/14 13:19:14;;;;;;;;;;;;;;;;;;5082510;28;20516;-65
2022/02/14 13:21:40;;;;;;;;;;;;;;;;;;5066814;28;19912;-65
2022/02/14 13:24:07;;;;;;;;;;;;;;;;;;5071183;28;19912;-66
2022/02/14 13:26:33;;;;;;;;;;;;;;;;;;5075763;28;19904;-65
2022/02/14 13:29:00;;;;;;;;;;;;;;;;;;5075682;28;20275;-65
2022/02/14 13:31:27;;;;;;;;;;;;;;;;;;5075524;28;19908;-66
2022/02/14 13:33:53;;;;;;;;;;;;;;;;;;5088205;28;19911;-65
2022/02/14 13:36:20;;;;;;;;;;;;;;;;;;5076745;28;19919;-65
2022/02/14 13:38:46;;;;;;;;;;;;;;;;;;5077387;28;19982;-66
2022/02/14 13:41:12;;;;;;;;;;;;;;;;;;5089852;28;19998;-65
2022/02/14 13:43:38;;;;;;;;;;;;;;;;;;5077503;28;19993;-66
2022/02/14 13:46:05;;;;;;;;;;;;;;;;;;5070452;28;20429;-65
2022/02/14 13:48:31;;;;;;;;;;;;;;;;;;5085134;28;20340;-66
2022/02/14 13:50:57;;;;;;;;;;;;;;;;;;5081222;28;19914;-66
2022/02/14 13:53:23;;;;;;;;;;;;;;;;;;5075301;28;19966;-66
2022/02/14 13:55:50;;;;;;;;;;;;;;;;;;5074936;28;19904;-66
2022/02/14 13:58:16;;;;;;;;;;;;;;;;;;5074102;28;19920;-66
2022/02/14 14:00:42;;;;;;;;;;;;;;;;;;5069473;28;19912;-66
2022/02/14 14:03:08;;;;;;;;;;;;;;;;;;5069651;28;20302;-66
2022/02/14 14:05:35;;;;;;;;;;;;;;;;;;5069146;28;20444;-67
2022/02/14 14:08:01;;;;;;;;;;;;;;;;;;5069685;28;19912;-67
2022/02/14 14:10:28;;;;;;;;;;;;;;;;;;5074942;28;19910;-66
2022/02/14 14:12:54;;;;;;;;;;;;;;;;;;5074587;28;19908;-66
2022/02/14 14:15:20;;;;;;;;;;;;;;;;;;5074717;28;19912;-67
2022/02/14 14:17:47;;;;;;;;;;;;;;;;;;5077371;28;19916;-67
2022/02/14 14:20:13;;;;;;;;;;;;;;;;;;5086871;28;19908;-67
2022/02/14 14:22:39;;;;;;;;;;;;;;;;;;5069066;28;20057;-67
2022/02/14 14:25:06;;;;;;;;;;;;;;;;;;5070198;28;19909;-68
2022/02/14 14:27:32;;;;;;;;;;;;;;;;;;5068983;28;19991;-67
2022/02/14 14:29:58;;;;;;;;;;;;;;;;;;5068934;28;19913;-67
2022/02/14 14:32:27;;;;;;;;;;;;;;;;;;5074384;28;19939;-67
2022/02/14 14:34:53;;;;;;;;;;;;;;;;;;5083934;28;20298;-68
2022/02/14 14:37:19;;;;;;;;;;;;;;;;;;5091169;28;19923;-67
2022/02/14 14:39:46;;;;;;;;;;;;;;;;;;5074427;28;19911;-67
2022/02/14 14:42:12;;;;;;;;;;;;;;;;;;5084626;28;19908;-68
2022/02/14 14:44:41;;;;;;;;;;;;;;;;;;5073589;28;20386;-68
2022/02/14 14:47:07;;;;;;;;;;;;;;;;;;5082531;28;19912;-68
2022/02/14 14:49:33;;;;;;;;;;;;;;;;;;5068885;28;19908;-68
2022/02/14 14:52:00;;;;;;;;;;;;;;;;;;5079668;28;19958;-67
2022/02/14 14:54:29;;;;;;;;;;;;;;;;;;5089668;28;20349;-68
2022/02/14 14:56:55;;;;;;;;;;;;;;;;;;5073975;28;19923;-67
2022/02/14 14:59:22;;;;;;;;;;;;;;;;;;5087630;28;19955;-68
2022/02/14 15:01:48;;;;;;;;;;;;;;;;;;5086017;28;19909;-68
2022/02/14 15:04:14;;;;;;;;;;;;;;;;;;5073014;28;19909;-68
2022/02/14 15:06:40;;;;;;;;;;;;;;;;;;5068339;28;19957;-68
2022/02/14 15:09:07;;;;;;;;;;;;;;;;;;5079961;28;19911;-68
2022/02/14 15:11:33;;;;;;;;;;;;;;;;;;5086682;28;19932;-68
2022/02/14 15:13:59;;;;;;;;;;;;;;;;;;5080818;28;20301;-68
2022/02/14 15:16:26;;;;;;;;;;;;;;;;;;5084919;28;20279;-68
2022/02/14 15:18:52;;;;;;;;;;;;;;;;;;5093423;28;19911;-68
2022/02/14 15:21:18;;;;;;;;;;;;;;;;;;5090145;28;19916;-69
2022/02/14 15:23:44;;;;;;;;;;;;;;;;;;5087265;28;19919;-69
2022/02/14 15:26:11;;;;;;;;;;;;;;;;;;5075315;28;19995;-68
2022/02/14 15:28:37;;;;;;;;;;;;;;;;;;5067919;28;19908;-68
2022/02/14 15:31:03;;;;;;;;;;;;;;;;;;5067895;28;19908;-69
2022/02/14 15:33:29;;;;;;;;;;;;;;;;;;5067977;28;21155;-69
2022/02/14 15:35:56;;;;;;;;;;;;;;;;;;5067156;28;20326;-69
2022/02/14 15:38:22;;;;;;;;;;;;;;;;;;5073888;28;20007;-69
2022/02/14 15:40:48;;;;;;;;;;;;;;;;;;5093304;28;19949;-69
2022/02/14 15:43:14;;;;;;;;;;;;;;;;;;5088236;28;19915;-69
2022/02/14 15:45:41;;;;;;;;;;;;;;;;;;5077948;28;19935;-68
2022/02/14 15:48:07;;;;;;;;;;;;;;;;;;5092915;28;20298;-68
2022/02/14 15:50:33;;;;;;;;;;;;;;;;;;5068878;28;19908;-69
2022/02/14 15:52:59;;;;;;;;;;;;;;;;;;5067332;28;19948;-69
2022/02/14 15:55:26;;;;;;;;;;;;;;;;;;5080350;28;20456;-68
2022/02/14 15:57:52;;;;;;;;;;;;;;;;;;5085780;28;19922;-69
2022/02/14 16:00:18;;;;;;;;;;;;;;;;;;5071809;28;19905;-68
2022/02/14 16:02:45;;;;;;;;;;;;;;;;;;5073007;28;19905;-68
2022/02/14 16:05:12;;;;;;;;;;;;;;;;;;5092687;28;19916;-68
2022/02/14 16:07:38;;;;;;;;;;;;;;;;;;5082982;28;19908;-69
2022/02/14 16:10:04;;;;;;;;;;;;;;;;;;5072681;28;20743;-69
2022/02/14 16:12:31;;;;;;;;;;;;;;;;;;5067798;28;19942;-69
2022/02/14 16:14:57;;;;;;;;;;;;;;;;;;5067302;28;20528;-69
2022/02/14 16:17:24;;;;;;;;;;;;;;;;;;5086022;28;19939;-69
2022/02/14 16:19:50;;;;;;;;;;;;;;;;;;5086953;28;19908;-68
2022/02/14 16:22:16;;;;;;;;;;;;;;;;;;5091198;28;20240;-69
2022/02/14 16:24:42;;;;;;;;;;;;;;;;;;5090666;28;20007;-69
2022/02/14 16:27:09;;;;;;;;;;;;;;;;;;5084223;28;19912;-70
2022/02/14 16:29:35;;;;;;;;;;;;;;;;;;5088175;28;19904;-70
2022/02/14 16:32:02;;;;;;;;;;;;;;;;;;5090250;28;19908;-70
2022/02/14 16:34:28;;;;;;;;;;;;;;;;;;5068384;28;19965;-70
2022/02/14 16:36:54;;;;;;;;;;;;;;;;;;5067205;28;19966;-70
2022/02/14 16:39:21;;;;;;;;;;;;;;;;;;5067053;28;19905;-70
2022/02/14 16:41:47;;;;;;;;;;;;;;;;;;5067113;28;20275;-70
2022/02/14 16:44:13;;;;;;;;;;;;;;;;;;5073246;28;20311;-70
2022/02/14 16:46:39;;;;;;;;;;;;;;;;;;5092786;28;20370;-70
2022/02/14 16:49:06;;;;;;;;;;;;;;;;;;5092598;28;19926;-70